sensor_id;sensor_type;location;lat;lon;timestamp;P1;durP1;ratioP1;P2;durP2;ratioP2
59659;SDS011;45534;52.690;6.268;2022-07-23T00:01:01;6.47;;;4.57;;
59659;SDS011;45534;52.690;6.268;2022-07-23T00:03:27;8.98;;;6.57;;
59659;SDS011;45534;52.690;6.268;2022-07-23T00:05:52;10.82;;;5.93;;
59659;SDS011;45534;52.690;6.268;2022-07-23T00:08:18;9.38;;;5.50;;
59659;SDS011;45534;52.690;6.268;2022-07-23T00:10:44;13.65;;;4.78;;
59659;SDS011;45534;52.690;6.268;2022-07-23T00:13:09;10.20;;;6.22;;
59659;SDS011;45534;52.690;6.268;2022-07-23T00:15:35;9.10;;;5.25;;
59659;SDS011;45534;52.690;6.268;2022-07-23T00:18:01;9.88;;;5.93;;
59659;SDS011;45534;52.690;6.268;2022-07-23T00:20:27;9.52;;;5.78;;
59659;SDS011;45534;52.690;6.268;2022-07-23T00:22:53;10.68;;;5.55;;
59659;SDS011;45534;52.690;6.268;2022-07-23T00:25:20;11.25;;;7.32;;
59659;SDS011;45534;52.690;6.268;2022-07-23T00:27:47;12.27;;;6.35;;
59659;SDS011;45534;52.690;6.268;2022-07-23T00:30:13;12.02;;;6.32;;
59659;SDS011;45534;52.690;6.268;2022-07-23T00:32:45;8.80;;;5.38;;
59659;SDS011;45534;52.690;6.268;2022-07-23T00:35:12;8.15;;;5.30;;
59659;SDS011;45534;52.690;6.268;2022-07-23T00:37:38;8.60;;;4.68;;
59659;SDS011;45534;52.690;6.268;2022-07-23T00:40:04;9.68;;;6.80;;
59659;SDS011;45534;52.690;6.268;2022-07-23T00:42:31;7.00;;;5.38;;
59659;SDS011;45534;52.690;6.268;2022-07-23T00:44:57;10.02;;;7.03;;
59659;SDS011;45534;52.690;6.268;2022-07-23T00:47:23;6.13;;;4.20;;
59659;SDS011;45534;52.690;6.268;2022-07-23T00:49:48;13.07;;;7.57;;
59659;SDS011;45534;52.690;6.268;2022-07-23T00:52:14;6.95;;;4.05;;
59659;SDS011;45534;52.690;6.268;2022-07-23T00:54:40;7.80;;;3.80;;
59659;SDS011;45534;52.690;6.268;2022-07-23T00:57:06;7.40;;;4.50;;
59659;SDS011;45534;52.690;6.268;2022-07-23T00:59:32;10.73;;;5.35;;
59659;SDS011;45534;52.690;6.268;2022-07-23T01:01:58;6.97;;;4.28;;
59659;SDS011;45534;52.690;6.268;2022-07-23T01:04:23;6.95;;;4.07;;
59659;SDS011;45534;52.690;6.268;2022-07-23T01:06:49;9.57;;;4.82;;
59659;SDS011;45534;52.690;6.268;2022-07-23T01:09:15;5.47;;;3.58;;
59659;SDS011;45534;52.690;6.268;2022-07-23T01:11:41;6.63;;;4.55;;
59659;SDS011;45534;52.690;6.268;2022-07-23T01:14:08;8.73;;;4.45;;
59659;SDS011;45534;52.690;6.268;2022-07-23T01:16:39;6.63;;;3.45;;
59659;SDS011;45534;52.690;6.268;2022-07-23T01:19:06;6.60;;;3.63;;
59659;SDS011;45534;52.690;6.268;2022-07-23T01:21:34;5.80;;;3.78;;
59659;SDS011;45534;52.690;6.268;2022-07-23T01:24:01;8.07;;;6.32;;
59659;SDS011;45534;52.690;6.268;2022-07-23T01:26:27;6.97;;;4.68;;
59659;SDS011;45534;52.690;6.268;2022-07-23T01:28:53;6.32;;;3.33;;
59659;SDS011;45534;52.690;6.268;2022-07-23T01:31:19;6.95;;;4.15;;
59659;SDS011;45534;52.690;6.268;2022-07-23T01:33:45;6.65;;;3.75;;
59659;SDS011;45534;52.690;6.268;2022-07-23T01:36:10;6.68;;;4.47;;
59659;SDS011;45534;52.690;6.268;2022-07-23T01:38:36;5.45;;;3.45;;
59659;SDS011;45534;52.690;6.268;2022-07-23T01:41:02;15.40;;;7.65;;
59659;SDS011;45534;52.690;6.268;2022-07-23T01:43:27;6.70;;;4.22;;
59659;SDS011;45534;52.690;6.268;2022-07-23T01:45:53;7.30;;;3.40;;
59659;SDS011;45534;52.690;6.268;2022-07-23T01:48:19;5.32;;;3.20;;
59659;SDS011;45534;52.690;6.268;2022-07-23T01:50:46;4.28;;;3.03;;
59659;SDS011;45534;52.690;6.268;2022-07-23T01:53:12;4.35;;;3.15;;
59659;SDS011;45534;52.690;6.268;2022-07-23T01:55:39;4.47;;;3.40;;
59659;SDS011;45534;52.690;6.268;2022-07-23T01:58:04;7.55;;;3.95;;
59659;SDS011;45534;52.690;6.268;2022-07-23T02:00:30;6.20;;;3.67;;
59659;SDS011;45534;52.690;6.268;2022-07-23T02:02:56;7.07;;;3.97;;
59659;SDS011;45534;52.690;6.268;2022-07-23T02:05:25;6.68;;;3.47;;
59659;SDS011;45534;52.690;6.268;2022-07-23T02:07:53;6.22;;;3.60;;
59659;SDS011;45534;52.690;6.268;2022-07-23T02:10:20;4.07;;;2.85;;
59659;SDS011;45534;52.690;6.268;2022-07-23T02:12:46;6.75;;;4.25;;
59659;SDS011;45534;52.690;6.268;2022-07-23T02:15:11;9.20;;;3.85;;
59659;SDS011;45534;52.690;6.268;2022-07-23T02:17:37;9.02;;;5.68;;
59659;SDS011;45534;52.690;6.268;2022-07-23T02:20:03;6.68;;;4.60;;
59659;SDS011;45534;52.690;6.268;2022-07-23T02:22:30;10.40;;;6.72;;
59659;SDS011;45534;52.690;6.268;2022-07-23T02:24:56;9.02;;;5.07;;
59659;SDS011;45534;52.690;6.268;2022-07-23T02:27:21;9.18;;;4.97;;
59659;SDS011;45534;52.690;6.268;2022-07-23T02:29:48;11.25;;;5.55;;
59659;SDS011;45534;52.690;6.268;2022-07-23T02:32:14;13.68;;;8.35;;
59659;SDS011;45534;52.690;6.268;2022-07-23T02:34:39;11.40;;;7.00;;
59659;SDS011;45534;52.690;6.268;2022-07-23T02:37:05;11.45;;;6.03;;
59659;SDS011;45534;52.690;6.268;2022-07-23T02:39:31;9.07;;;5.78;;
59659;SDS011;45534;52.690;6.268;2022-07-23T02:41:57;7.55;;;3.40;;
59659;SDS011;45534;52.690;6.268;2022-07-23T02:44:22;9.13;;;3.88;;
59659;SDS011;45534;52.690;6.268;2022-07-23T02:46:48;7.82;;;4.75;;
59659;SDS011;45534;52.690;6.268;2022-07-23T02:49:13;8.13;;;5.32;;
59659;SDS011;45534;52.690;6.268;2022-07-23T02:51:39;5.78;;;3.90;;
59659;SDS011;45534;52.690;6.268;2022-07-23T02:54:05;10.57;;;5.57;;
59659;SDS011;45534;52.690;6.268;2022-07-23T02:56:30;8.88;;;4.55;;
59659;SDS011;45534;52.690;6.268;2022-07-23T02:58:56;4.63;;;3.13;;
59659;SDS011;45534;52.690;6.268;2022-07-23T03:01:22;7.40;;;4.70;;
59659;SDS011;45534;52.690;6.268;2022-07-23T03:03:47;6.95;;;3.33;;
59659;SDS011;45534;52.690;6.268;2022-07-23T03:06:13;10.63;;;4.57;;
59659;SDS011;45534;52.690;6.268;2022-07-23T03:08:39;10.55;;;4.85;;
59659;SDS011;45534;52.690;6.268;2022-07-23T03:11:04;7.18;;;4.15;;
59659;SDS011;45534;52.690;6.268;2022-07-23T03:13:36;8.07;;;5.80;;
59659;SDS011;45534;52.690;6.268;2022-07-23T03:16:02;9.98;;;5.60;;
59659;SDS011;45534;52.690;6.268;2022-07-23T03:18:28;10.93;;;5.40;;
59659;SDS011;45534;52.690;6.268;2022-07-23T03:20:54;8.98;;;5.57;;
59659;SDS011;45534;52.690;6.268;2022-07-23T03:23:20;9.15;;;6.22;;
59659;SDS011;45534;52.690;6.268;2022-07-23T03:25:45;11.23;;;5.13;;
59659;SDS011;45534;52.690;6.268;2022-07-23T03:28:14;8.00;;;5.25;;
59659;SDS011;45534;52.690;6.268;2022-07-23T03:30:45;9.43;;;5.78;;
59659;SDS011;45534;52.690;6.268;2022-07-23T03:33:18;9.68;;;5.65;;
59659;SDS011;45534;52.690;6.268;2022-07-23T03:35:47;8.50;;;5.15;;
59659;SDS011;45534;52.690;6.268;2022-07-23T03:38:13;10.93;;;5.95;;
59659;SDS011;45534;52.690;6.268;2022-07-23T03:40:39;8.40;;;4.75;;
59659;SDS011;45534;52.690;6.268;2022-07-23T03:43:05;8.30;;;5.30;;
59659;SDS011;45534;52.690;6.268;2022-07-23T03:45:31;7.68;;;4.63;;
59659;SDS011;45534;52.690;6.268;2022-07-23T03:47:57;7.45;;;3.92;;
59659;SDS011;45534;52.690;6.268;2022-07-23T03:50:23;8.00;;;4.53;;
59659;SDS011;45534;52.690;6.268;2022-07-23T03:52:50;7.60;;;3.70;;
59659;SDS011;45534;52.690;6.268;2022-07-23T03:55:16;4.88;;;4.40;;
59659;SDS011;45534;52.690;6.268;2022-07-23T03:57:42;10.90;;;6.00;;
59659;SDS011;45534;52.690;6.268;2022-07-23T04:00:08;9.23;;;4.95;;
59659;SDS011;45534;52.690;6.268;2022-07-23T04:02:36;5.47;;;3.42;;
59659;SDS011;45534;52.690;6.268;2022-07-23T04:05:03;8.98;;;4.55;;
59659;SDS011;45534;52.690;6.268;2022-07-23T04:07:29;6.18;;;3.80;;
59659;SDS011;45534;52.690;6.268;2022-07-23T04:09:54;3.25;;;2.40;;
59659;SDS011;45534;52.690;6.268;2022-07-23T04:12:20;6.40;;;3.35;;
59659;SDS011;45534;52.690;6.268;2022-07-23T04:14:46;5.10;;;3.42;;
59659;SDS011;45534;52.690;6.268;2022-07-23T04:17:11;5.18;;;3.05;;
59659;SDS011;45534;52.690;6.268;2022-07-23T04:19:37;6.18;;;4.25;;
59659;SDS011;45534;52.690;6.268;2022-07-23T04:22:06;4.97;;;3.20;;
59659;SDS011;45534;52.690;6.268;2022-07-23T04:24:33;6.32;;;3.80;;
59659;SDS011;45534;52.690;6.268;2022-07-23T04:26:58;5.53;;;3.40;;
59659;SDS011;45534;52.690;6.268;2022-07-23T04:29:24;10.15;;;3.40;;
59659;SDS011;45534;52.690;6.268;2022-07-23T04:31:50;4.43;;;3.25;;
59659;SDS011;45534;52.690;6.268;2022-07-23T04:34:16;3.67;;;3.00;;
59659;SDS011;45534;52.690;6.268;2022-07-23T04:36:41;6.85;;;3.05;;
59659;SDS011;45534;52.690;6.268;2022-07-23T04:39:07;5.03;;;3.38;;
59659;SDS011;45534;52.690;6.268;2022-07-23T04:41:33;4.22;;;3.30;;
59659;SDS011;45534;52.690;6.268;2022-07-23T04:43:59;6.18;;;2.78;;
59659;SDS011;45534;52.690;6.268;2022-07-23T04:46:25;4.70;;;3.08;;
59659;SDS011;45534;52.690;6.268;2022-07-23T04:48:51;5.28;;;2.88;;
59659;SDS011;45534;52.690;6.268;2022-07-23T04:51:17;6.72;;;4.10;;
59659;SDS011;45534;52.690;6.268;2022-07-23T04:53:42;3.33;;;2.65;;
59659;SDS011;45534;52.690;6.268;2022-07-23T04:56:08;6.72;;;3.85;;
59659;SDS011;45534;52.690;6.268;2022-07-23T04:58:34;19.58;;;5.93;;
59659;SDS011;45534;52.690;6.268;2022-07-23T05:00:59;4.47;;;3.67;;
59659;SDS011;45534;52.690;6.268;2022-07-23T05:03:25;6.40;;;3.95;;
59659;SDS011;45534;52.690;6.268;2022-07-23T05:05:51;4.20;;;2.83;;
59659;SDS011;45534;52.690;6.268;2022-07-23T05:08:17;5.65;;;2.90;;
59659;SDS011;45534;52.690;6.268;2022-07-23T05:10:42;5.97;;;3.88;;
59659;SDS011;45534;52.690;6.268;2022-07-23T05:13:08;6.80;;;4.15;;
59659;SDS011;45534;52.690;6.268;2022-07-23T05:15:34;5.80;;;2.83;;
59659;SDS011;45534;52.690;6.268;2022-07-23T05:17:59;5.07;;;2.85;;
59659;SDS011;45534;52.690;6.268;2022-07-23T05:20:25;4.82;;;3.83;;
59659;SDS011;45534;52.690;6.268;2022-07-23T05:22:51;4.68;;;2.55;;
59659;SDS011;45534;52.690;6.268;2022-07-23T05:25:16;7.40;;;5.15;;
59659;SDS011;45534;52.690;6.268;2022-07-23T05:27:42;5.40;;;3.10;;
59659;SDS011;45534;52.690;6.268;2022-07-23T05:30:08;5.20;;;3.10;;
59659;SDS011;45534;52.690;6.268;2022-07-23T05:32:34;4.55;;;2.65;;
59659;SDS011;45534;52.690;6.268;2022-07-23T05:35:02;6.32;;;3.85;;
59659;SDS011;45534;52.690;6.268;2022-07-23T05:37:28;5.57;;;4.00;;
59659;SDS011;45534;52.690;6.268;2022-07-23T05:39:54;8.10;;;4.10;;
59659;SDS011;45534;52.690;6.268;2022-07-23T05:42:20;9.23;;;3.28;;
59659;SDS011;45534;52.690;6.268;2022-07-23T05:44:45;5.43;;;4.07;;
59659;SDS011;45534;52.690;6.268;2022-07-23T05:47:11;5.25;;;3.78;;
59659;SDS011;45534;52.690;6.268;2022-07-23T05:49:37;5.60;;;3.60;;
59659;SDS011;45534;52.690;6.268;2022-07-23T05:52:07;5.68;;;3.58;;
59659;SDS011;45534;52.690;6.268;2022-07-23T05:54:36;10.93;;;3.53;;
59659;SDS011;45534;52.690;6.268;2022-07-23T05:57:02;7.82;;;4.15;;
59659;SDS011;45534;52.690;6.268;2022-07-23T05:59:28;6.05;;;3.63;;
59659;SDS011;45534;52.690;6.268;2022-07-23T06:01:54;4.90;;;3.65;;
59659;SDS011;45534;52.690;6.268;2022-07-23T06:04:20;6.18;;;3.70;;
59659;SDS011;45534;52.690;6.268;2022-07-23T06:06:46;5.35;;;3.60;;
59659;SDS011;45534;52.690;6.268;2022-07-23T06:09:11;12.35;;;7.50;;
59659;SDS011;45534;52.690;6.268;2022-07-23T06:11:38;5.93;;;3.42;;
59659;SDS011;45534;52.690;6.268;2022-07-23T06:14:05;6.10;;;3.75;;
59659;SDS011;45534;52.690;6.268;2022-07-23T06:16:31;6.32;;;3.47;;
59659;SDS011;45534;52.690;6.268;2022-07-23T06:18:56;3.95;;;2.60;;
59659;SDS011;45534;52.690;6.268;2022-07-23T06:21:22;5.65;;;2.35;;
59659;SDS011;45534;52.690;6.268;2022-07-23T06:23:48;2.72;;;2.35;;
59659;SDS011;45534;52.690;6.268;2022-07-23T06:26:14;2.58;;;2.30;;
59659;SDS011;45534;52.690;6.268;2022-07-23T06:28:39;5.03;;;3.15;;
59659;SDS011;45534;52.690;6.268;2022-07-23T06:31:05;3.13;;;2.80;;
59659;SDS011;45534;52.690;6.268;2022-07-23T06:33:31;3.25;;;2.17;;
59659;SDS011;45534;52.690;6.268;2022-07-23T06:35:56;2.35;;;1.70;;
59659;SDS011;45534;52.690;6.268;2022-07-23T06:38:22;7.65;;;4.18;;
59659;SDS011;45534;52.690;6.268;2022-07-23T06:40:48;1.95;;;1.85;;
59659;SDS011;45534;52.690;6.268;2022-07-23T06:43:13;4.30;;;2.20;;
59659;SDS011;45534;52.690;6.268;2022-07-23T06:45:39;3.30;;;2.53;;
59659;SDS011;45534;52.690;6.268;2022-07-23T06:48:05;7.10;;;3.95;;
59659;SDS011;45534;52.690;6.268;2022-07-23T06:50:30;1.88;;;1.40;;
59659;SDS011;45534;52.690;6.268;2022-07-23T06:52:56;1.95;;;1.50;;
59659;SDS011;45534;52.690;6.268;2022-07-23T06:55:22;4.32;;;1.70;;
59659;SDS011;45534;52.690;6.268;2022-07-23T06:57:47;2.15;;;1.60;;
59659;SDS011;45534;52.690;6.268;2022-07-23T07:00:13;4.30;;;1.60;;
59659;SDS011;45534;52.690;6.268;2022-07-23T07:02:39;1.70;;;1.40;;
59659;SDS011;45534;52.690;6.268;2022-07-23T07:05:05;2.47;;;2.28;;
59659;SDS011;45534;52.690;6.268;2022-07-23T07:07:31;5.78;;;2.35;;
59659;SDS011;45534;52.690;6.268;2022-07-23T07:09:56;6.18;;;1.60;;
59659;SDS011;45534;52.690;6.268;2022-07-23T07:12:22;3.85;;;2.20;;
59659;SDS011;45534;52.690;6.268;2022-07-23T07:14:47;2.80;;;2.10;;
59659;SDS011;45534;52.690;6.268;2022-07-23T07:17:13;2.42;;;1.80;;
59659;SDS011;45534;52.690;6.268;2022-07-23T07:19:40;4.15;;;2.65;;
59659;SDS011;45534;52.690;6.268;2022-07-23T07:22:06;1.77;;;1.67;;
59659;SDS011;45534;52.690;6.268;2022-07-23T07:24:31;7.88;;;3.75;;
59659;SDS011;45534;52.690;6.268;2022-07-23T07:26:57;2.50;;;1.98;;
59659;SDS011;45534;52.690;6.268;2022-07-23T07:29:23;4.97;;;2.22;;
59659;SDS011;45534;52.690;6.268;2022-07-23T07:31:49;1.85;;;1.75;;
59659;SDS011;45534;52.690;6.268;2022-07-23T07:34:14;1.38;;;1.38;;
59659;SDS011;45534;52.690;6.268;2022-07-23T07:36:40;9.48;;;2.97;;
59659;SDS011;45534;52.690;6.268;2022-07-23T07:39:06;4.07;;;2.90;;
59659;SDS011;45534;52.690;6.268;2022-07-23T07:41:32;1.90;;;1.80;;
59659;SDS011;45534;52.690;6.268;2022-07-23T07:43:57;1.60;;;1.50;;
59659;SDS011;45534;52.690;6.268;2022-07-23T07:46:23;1.90;;;1.65;;
59659;SDS011;45534;52.690;6.268;2022-07-23T07:48:49;1.20;;;1.20;;
59659;SDS011;45534;52.690;6.268;2022-07-23T07:51:15;4.20;;;2.80;;
59659;SDS011;45534;52.690;6.268;2022-07-23T07:53:41;1.38;;;1.35;;
59659;SDS011;45534;52.690;6.268;2022-07-23T07:56:07;3.97;;;1.83;;
59659;SDS011;45534;52.690;6.268;2022-07-23T07:58:32;1.67;;;1.60;;
59659;SDS011;45534;52.690;6.268;2022-07-23T08:00:58;9.60;;;3.15;;
59659;SDS011;45534;52.690;6.268;2022-07-23T08:03:25;5.13;;;2.92;;
59659;SDS011;45534;52.690;6.268;2022-07-23T08:05:51;2.60;;;2.40;;
59659;SDS011;45534;52.690;6.268;2022-07-23T08:08:17;3.35;;;1.52;;
59659;SDS011;45534;52.690;6.268;2022-07-23T08:10:43;1.63;;;1.52;;
59659;SDS011;45534;52.690;6.268;2022-07-23T08:13:12;2.47;;;1.45;;
59659;SDS011;45534;52.690;6.268;2022-07-23T08:15:39;1.60;;;1.50;;
59659;SDS011;45534;52.690;6.268;2022-07-23T08:18:05;3.25;;;1.77;;
59659;SDS011;45534;52.690;6.268;2022-07-23T08:20:31;3.30;;;1.63;;
59659;SDS011;45534;52.690;6.268;2022-07-23T08:23:02;6.95;;;3.00;;
59659;SDS011;45534;52.690;6.268;2022-07-23T08:25:30;1.00;;;1.00;;
59659;SDS011;45534;52.690;6.268;2022-07-23T08:27:58;1.60;;;1.50;;
59659;SDS011;45534;52.690;6.268;2022-07-23T08:30:25;1.10;;;1.10;;
59659;SDS011;45534;52.690;6.268;2022-07-23T08:32:56;4.07;;;2.13;;
59659;SDS011;45534;52.690;6.268;2022-07-23T08:35:32;3.83;;;2.28;;
59659;SDS011;45534;52.690;6.268;2022-07-23T08:38:03;2.35;;;1.33;;
59659;SDS011;45534;52.690;6.268;2022-07-23T08:40:32;1.42;;;1.25;;
59659;SDS011;45534;52.690;6.268;2022-07-23T08:42:59;2.25;;;1.38;;
59659;SDS011;45534;52.690;6.268;2022-07-23T08:45:27;1.00;;;1.00;;
59659;SDS011;45534;52.690;6.268;2022-07-23T08:47:54;2.55;;;2.17;;
59659;SDS011;45534;52.690;6.268;2022-07-23T08:50:22;6.30;;;2.47;;
59659;SDS011;45534;52.690;6.268;2022-07-23T08:52:49;1.20;;;1.10;;
59659;SDS011;45534;52.690;6.268;2022-07-23T08:55:17;4.00;;;2.08;;
59659;SDS011;45534;52.690;6.268;2022-07-23T08:57:43;3.83;;;2.15;;
59659;SDS011;45534;52.690;6.268;2022-07-23T09:00:09;2.40;;;2.20;;
59659;SDS011;45534;52.690;6.268;2022-07-23T09:02:39;1.08;;;1.05;;
59659;SDS011;45534;52.690;6.268;2022-07-23T09:05:06;2.58;;;2.08;;
59659;SDS011;45534;52.690;6.268;2022-07-23T09:07:33;4.97;;;2.50;;
59659;SDS011;45534;52.690;6.268;2022-07-23T09:10:06;4.57;;;2.55;;
59659;SDS011;45534;52.690;6.268;2022-07-23T09:12:34;2.60;;;2.20;;
59659;SDS011;45534;52.690;6.268;2022-07-23T09:15:03;4.88;;;2.13;;
59659;SDS011;45534;52.690;6.268;2022-07-23T09:17:39;4.55;;;2.00;;
59659;SDS011;45534;52.690;6.268;2022-07-23T09:20:14;1.20;;;1.20;;
59659;SDS011;45534;52.690;6.268;2022-07-23T09:22:45;3.55;;;1.75;;
59659;SDS011;45534;52.690;6.268;2022-07-23T09:25:16;2.08;;;1.90;;
59659;SDS011;45534;52.690;6.268;2022-07-23T09:27:46;2.08;;;1.85;;
59659;SDS011;45534;52.690;6.268;2022-07-23T09:30:28;2.35;;;1.92;;
59659;SDS011;45534;52.690;6.268;2022-07-23T09:33:09;5.22;;;1.88;;
59659;SDS011;45534;52.690;6.268;2022-07-23T09:38:19;1.35;;;1.20;;
59659;SDS011;45534;52.690;6.268;2022-07-23T09:40:46;1.92;;;1.83;;
59659;SDS011;45534;52.690;6.268;2022-07-23T09:43:31;8.82;;;2.30;;
59659;SDS011;45534;52.690;6.268;2022-07-23T09:46:18;3.00;;;1.98;;
59659;SDS011;45534;52.690;6.268;2022-07-23T09:48:46;4.30;;;2.47;;
59659;SDS011;45534;52.690;6.268;2022-07-23T09:51:13;3.08;;;2.30;;
59659;SDS011;45534;52.690;6.268;2022-07-23T09:54:08;7.45;;;2.47;;
59659;SDS011;45534;52.690;6.268;2022-07-23T09:57:09;3.63;;;2.03;;
59659;SDS011;45534;52.690;6.268;2022-07-23T09:59:40;3.78;;;1.80;;
59659;SDS011;45534;52.690;6.268;2022-07-23T10:02:09;2.10;;;2.00;;
59659;SDS011;45534;52.690;6.268;2022-07-23T10:04:37;3.03;;;2.15;;
59659;SDS011;45534;52.690;6.268;2022-07-23T10:07:05;4.95;;;2.80;;
59659;SDS011;45534;52.690;6.268;2022-07-23T10:09:36;4.75;;;2.67;;
59659;SDS011;45534;52.690;6.268;2022-07-23T10:14:38;3.35;;;2.55;;
59659;SDS011;45534;52.690;6.268;2022-07-23T10:17:05;2.95;;;2.40;;
59659;SDS011;45534;52.690;6.268;2022-07-23T10:19:31;2.15;;;1.90;;
59659;SDS011;45534;52.690;6.268;2022-07-23T10:22:02;3.60;;;2.55;;
59659;SDS011;45534;52.690;6.268;2022-07-23T10:35:44;4.43;;;2.63;;
59659;SDS011;45534;52.690;6.268;2022-07-23T10:40:58;4.30;;;2.75;;
59659;SDS011;45534;52.690;6.268;2022-07-23T10:43:28;3.13;;;2.35;;
59659;SDS011;45534;52.690;6.268;2022-07-23T10:45:55;3.28;;;2.13;;
59659;SDS011;45534;52.690;6.268;2022-07-23T10:48:37;3.88;;;2.50;;
59659;SDS011;45534;52.690;6.268;2022-07-23T10:51:08;3.72;;;2.17;;
59659;SDS011;45534;52.690;6.268;2022-07-23T10:56:14;2.55;;;2.35;;
59659;SDS011;45534;52.690;6.268;2022-07-23T10:58:47;3.75;;;2.67;;
59659;SDS011;45534;52.690;6.268;2022-07-23T11:01:34;5.57;;;3.22;;
59659;SDS011;45534;52.690;6.268;2022-07-23T11:04:01;4.00;;;2.42;;
59659;SDS011;45534;52.690;6.268;2022-07-23T11:12:31;3.42;;;2.67;;
59659;SDS011;45534;52.690;6.268;2022-07-23T11:17:35;4.10;;;2.80;;
59659;SDS011;45534;52.690;6.268;2022-07-23T11:22:55;3.55;;;3.03;;
59659;SDS011;45534;52.690;6.268;2022-07-23T11:27:47;2.55;;;2.25;;
59659;SDS011;45534;52.690;6.268;2022-07-23T11:32:54;4.55;;;2.45;;
59659;SDS011;45534;52.690;6.268;2022-07-23T11:35:43;3.75;;;2.67;;
59659;SDS011;45534;52.690;6.268;2022-07-23T11:38:25;5.35;;;3.65;;
59659;SDS011;45534;52.690;6.268;2022-07-23T11:40:54;4.25;;;3.22;;
59659;SDS011;45534;52.690;6.268;2022-07-23T11:43:23;5.53;;;3.40;;
59659;SDS011;45534;52.690;6.268;2022-07-23T11:45:50;4.38;;;2.55;;
59659;SDS011;45534;52.690;6.268;2022-07-23T11:48:22;3.50;;;2.92;;
59659;SDS011;45534;52.690;6.268;2022-07-23T11:50:49;3.03;;;2.13;;
59659;SDS011;45534;52.690;6.268;2022-07-23T11:53:34;4.78;;;2.55;;
59659;SDS011;45534;52.690;6.268;2022-07-23T11:56:03;4.00;;;2.50;;
59659;SDS011;45534;52.690;6.268;2022-07-23T11:58:29;5.85;;;2.47;;
59659;SDS011;45534;52.690;6.268;2022-07-23T12:00:55;6.60;;;2.92;;
59659;SDS011;45534;52.690;6.268;2022-07-23T12:03:21;4.35;;;2.85;;
59659;SDS011;45534;52.690;6.268;2022-07-23T12:05:47;4.82;;;2.50;;
59659;SDS011;45534;52.690;6.268;2022-07-23T12:08:13;3.03;;;2.35;;
59659;SDS011;45534;52.690;6.268;2022-07-23T12:10:40;17.05;;;2.70;;
59659;SDS011;45534;52.690;6.268;2022-07-23T12:13:08;4.65;;;2.85;;
59659;SDS011;45534;52.690;6.268;2022-07-23T12:15:39;4.65;;;2.88;;
59659;SDS011;45534;52.690;6.268;2022-07-23T12:18:07;3.33;;;2.20;;
59659;SDS011;45534;52.690;6.268;2022-07-23T12:20:36;3.45;;;2.63;;
59659;SDS011;45534;52.690;6.268;2022-07-23T12:23:08;4.43;;;2.67;;
59659;SDS011;45534;52.690;6.268;2022-07-23T12:25:44;3.13;;;2.72;;
59659;SDS011;45534;52.690;6.268;2022-07-23T12:33:08;2.70;;;2.50;;
59659;SDS011;45534;52.690;6.268;2022-07-23T12:35:40;2.67;;;2.47;;
59659;SDS011;45534;52.690;6.268;2022-07-23T12:38:14;4.18;;;3.08;;
59659;SDS011;45534;52.690;6.268;2022-07-23T12:40:47;2.17;;;2.00;;
59659;SDS011;45534;52.690;6.268;2022-07-23T12:43:21;3.42;;;2.53;;
59659;SDS011;45534;52.690;6.268;2022-07-23T12:46:02;2.70;;;1.92;;
59659;SDS011;45534;52.690;6.268;2022-07-23T12:48:35;3.95;;;3.10;;
59659;SDS011;45534;52.690;6.268;2022-07-23T12:51:21;3.10;;;2.80;;
59659;SDS011;45534;52.690;6.268;2022-07-23T12:53:53;3.25;;;2.60;;
59659;SDS011;45534;52.690;6.268;2022-07-23T12:56:27;2.90;;;2.60;;
59659;SDS011;45534;52.690;6.268;2022-07-23T13:04:02;2.90;;;2.47;;
59659;SDS011;45534;52.690;6.268;2022-07-23T13:06:32;4.72;;;2.55;;
59659;SDS011;45534;52.690;6.268;2022-07-23T13:09:10;9.90;;;3.45;;
59659;SDS011;45534;52.690;6.268;2022-07-23T13:11:38;2.78;;;2.40;;
59659;SDS011;45534;52.690;6.268;2022-07-23T13:14:04;3.40;;;2.33;;
59659;SDS011;45534;52.690;6.268;2022-07-23T13:16:30;3.50;;;2.83;;
59659;SDS011;45534;52.690;6.268;2022-07-23T13:18:58;5.63;;;3.05;;
59659;SDS011;45534;52.690;6.268;2022-07-23T13:21:25;5.38;;;2.80;;
59659;SDS011;45534;52.690;6.268;2022-07-23T13:23:52;3.03;;;2.55;;
59659;SDS011;45534;52.690;6.268;2022-07-23T13:26:17;4.32;;;3.17;;
59659;SDS011;45534;52.690;6.268;2022-07-23T13:28:43;3.63;;;2.63;;
59659;SDS011;45534;52.690;6.268;2022-07-23T13:31:09;2.75;;;2.55;;
59659;SDS011;45534;52.690;6.268;2022-07-23T13:33:35;2.50;;;2.25;;
59659;SDS011;45534;52.690;6.268;2022-07-23T13:36:01;4.95;;;2.38;;
59659;SDS011;45534;52.690;6.268;2022-07-23T13:38:26;3.83;;;3.03;;
59659;SDS011;45534;52.690;6.268;2022-07-23T13:40:52;3.10;;;2.40;;
59659;SDS011;45534;52.690;6.268;2022-07-23T13:43:19;3.65;;;3.17;;
59659;SDS011;45534;52.690;6.268;2022-07-23T13:45:47;3.70;;;2.53;;
59659;SDS011;45534;52.690;6.268;2022-07-23T13:48:14;4.40;;;2.78;;
59659;SDS011;45534;52.690;6.268;2022-07-23T13:50:41;3.28;;;2.95;;
59659;SDS011;45534;52.690;6.268;2022-07-23T13:53:08;3.65;;;2.65;;
59659;SDS011;45534;52.690;6.268;2022-07-23T13:55:36;3.22;;;2.67;;
59659;SDS011;45534;52.690;6.268;2022-07-23T13:58:03;3.28;;;2.75;;
59659;SDS011;45534;52.690;6.268;2022-07-23T14:00:29;5.05;;;2.20;;
59659;SDS011;45534;52.690;6.268;2022-07-23T14:02:57;6.45;;;2.50;;
59659;SDS011;45534;52.690;6.268;2022-07-23T14:05:23;3.25;;;2.47;;
59659;SDS011;45534;52.690;6.268;2022-07-23T14:07:49;6.55;;;2.60;;
59659;SDS011;45534;52.690;6.268;2022-07-23T14:10:17;4.20;;;2.83;;
59659;SDS011;45534;52.690;6.268;2022-07-23T14:12:45;5.35;;;3.05;;
59659;SDS011;45534;52.690;6.268;2022-07-23T14:15:12;2.65;;;2.45;;
59659;SDS011;45534;52.690;6.268;2022-07-23T14:17:38;3.90;;;2.65;;
59659;SDS011;45534;52.690;6.268;2022-07-23T14:20:05;2.10;;;1.95;;
59659;SDS011;45534;52.690;6.268;2022-07-23T14:22:32;3.28;;;2.33;;
59659;SDS011;45534;52.690;6.268;2022-07-23T14:24:58;4.05;;;2.38;;
59659;SDS011;45534;52.690;6.268;2022-07-23T14:27:26;3.65;;;2.58;;
59659;SDS011;45534;52.690;6.268;2022-07-23T14:29:53;2.50;;;2.30;;
59659;SDS011;45534;52.690;6.268;2022-07-23T14:32:19;3.33;;;2.40;;
59659;SDS011;45534;52.690;6.268;2022-07-23T14:34:45;3.35;;;2.65;;
59659;SDS011;45534;52.690;6.268;2022-07-23T14:37:11;2.78;;;2.38;;
59659;SDS011;45534;52.690;6.268;2022-07-23T14:39:41;3.25;;;2.65;;
59659;SDS011;45534;52.690;6.268;2022-07-23T14:42:08;2.95;;;2.55;;
59659;SDS011;45534;52.690;6.268;2022-07-23T14:44:35;2.50;;;2.08;;
59659;SDS011;45534;52.690;6.268;2022-07-23T14:47:02;5.72;;;3.13;;
59659;SDS011;45534;52.690;6.268;2022-07-23T14:49:29;4.32;;;2.63;;
59659;SDS011;45534;52.690;6.268;2022-07-23T14:51:56;4.53;;;2.90;;
59659;SDS011;45534;52.690;6.268;2022-07-23T14:54:22;2.90;;;2.70;;
59659;SDS011;45534;52.690;6.268;2022-07-23T14:56:50;3.28;;;2.60;;
59659;SDS011;45534;52.690;6.268;2022-07-23T14:59:16;5.97;;;2.85;;
59659;SDS011;45534;52.690;6.268;2022-07-23T15:01:42;3.10;;;2.33;;
59659;SDS011;45534;52.690;6.268;2022-07-23T15:04:08;3.72;;;2.38;;
59659;SDS011;45534;52.690;6.268;2022-07-23T15:06:34;3.15;;;2.50;;
59659;SDS011;45534;52.690;6.268;2022-07-23T15:09:00;4.30;;;2.65;;
59659;SDS011;45534;52.690;6.268;2022-07-23T15:11:28;4.63;;;2.80;;
59659;SDS011;45534;52.690;6.268;2022-07-23T15:13:57;3.53;;;2.70;;
59659;SDS011;45534;52.690;6.268;2022-07-23T15:16:22;3.55;;;2.40;;
59659;SDS011;45534;52.690;6.268;2022-07-23T15:18:48;2.83;;;2.33;;
59659;SDS011;45534;52.690;6.268;2022-07-23T15:21:17;4.85;;;2.78;;
59659;SDS011;45534;52.690;6.268;2022-07-23T15:23:42;2.95;;;2.53;;
59659;SDS011;45534;52.690;6.268;2022-07-23T15:26:08;7.07;;;2.80;;
59659;SDS011;45534;52.690;6.268;2022-07-23T15:28:37;5.78;;;2.80;;
59659;SDS011;45534;52.690;6.268;2022-07-23T15:31:03;6.55;;;2.83;;
59659;SDS011;45534;52.690;6.268;2022-07-23T15:33:29;3.42;;;2.13;;
59659;SDS011;45534;52.690;6.268;2022-07-23T15:35:55;3.25;;;2.65;;